sensor_id;sensor_type;location;lat;lon;timestamp;temperature;humidity
11035;DHT22;5571;48.110;-1.706;2023-03-29T00:01:01;12.20;99.90
11035;DHT22;5571;48.110;-1.706;2023-03-29T00:03:27;12.20;99.90
11035;DHT22;5571;48.110;-1.706;2023-03-29T00:05:59;12.20;99.90
11035;DHT22;5571;48.110;-1.706;2023-03-29T00:08:28;12.20;99.90
11035;DHT22;5571;48.110;-1.706;2023-03-29T00:10:55;12.20;99.90
11035;DHT22;5571;48.110;-1.706;2023-03-29T00:13:21;12.10;99.90
11035;DHT22;5571;48.110;-1.706;2023-03-29T00:15:47;12.10;99.90
11035;DHT22;5571;48.110;-1.706;2023-03-29T00:18:12;12.10;99.90
11035;DHT22;5571;48.110;-1.706;2023-03-29T00:20:38;12.10;99.90
11035;DHT22;5571;48.110;-1.706;2023-03-29T00:23:03;12.10;99.90
11035;DHT22;5571;48.110;-1.706;2023-03-29T00:25:30;12.20;99.90
11035;DHT22;5571;48.110;-1.706;2023-03-29T00:27:55;12.20;99.90
11035;DHT22;5571;48.110;-1.706;2023-03-29T00:30:21;12.20;99.90
11035;DHT22;5571;48.110;-1.706;2023-03-29T00:32:46;12.20;99.90
11035;DHT22;5571;48.110;-1.706;2023-03-29T00:35:12;12.10;99.90
11035;DHT22;5571;48.110;-1.706;2023-03-29T00:37:38;12.20;99.90
11035;DHT22;5571;48.110;-1.706;2023-03-29T00:40:06;12.20;99.90
11035;DHT22;5571;48.110;-1.706;2023-03-29T00:42:36;12.10;99.90
11035;DHT22;5571;48.110;-1.706;2023-03-29T00:47:45;12.20;99.90
11035;DHT22;5571;48.110;-1.706;2023-03-29T00:50:15;12.20;99.90
11035;DHT22;5571;48.110;-1.706;2023-03-29T00:52:46;12.20;99.90
11035;DHT22;5571;48.110;-1.706;2023-03-29T00:55:18;12.20;99.90
11035;DHT22;5571;48.110;-1.706;2023-03-29T00:57:46;12.10;99.90
11035;DHT22;5571;48.110;-1.706;2023-03-29T01:00:16;12.10;99.90
11035;DHT22;5571;48.110;-1.706;2023-03-29T01:02:47;12.10;99.90
11035;DHT22;5571;48.110;-1.706;2023-03-29T01:05:40;12.10;99.90
11035;DHT22;5571;48.110;-1.706;2023-03-29T01:08:43;12.10;99.90
11035;DHT22;5571;48.110;-1.706;2023-03-29T01:11:23;12.10;99.90
11035;DHT22;5571;48.110;-1.706;2023-03-29T01:16:17;12.10;99.90
11035;DHT22;5571;48.110;-1.706;2023-03-29T01:18:44;12.10;99.90
11035;DHT22;5571;48.110;-1.706;2023-03-29T01:21:42;12.10;99.90
11035;DHT22;5571;48.110;-1.706;2023-03-29T01:24:39;12.10;99.90
11035;DHT22;5571;48.110;-1.706;2023-03-29T01:32:20;12.00;99.90
11035;DHT22;5571;48.110;-1.706;2023-03-29T01:34:49;12.10;99.90
11035;DHT22;5571;48.110;-1.706;2023-03-29T01:39:50;12.10;99.90
11035;DHT22;5571;48.110;-1.706;2023-03-29T01:42:31;12.00;99.90
11035;DHT22;5571;48.110;-1.706;2023-03-29T01:47:51;12.00;99.90
11035;DHT22;5571;48.110;-1.706;2023-03-29T01:53:04;12.00;99.90
11035;DHT22;5571;48.110;-1.706;2023-03-29T01:55:36;12.00;99.90
11035;DHT22;5571;48.110;-1.706;2023-03-29T01:58:04;12.10;99.90
11035;DHT22;5571;48.110;-1.706;2023-03-29T02:00:33;12.00;99.90
11035;DHT22;5571;48.110;-1.706;2023-03-29T02:03:06;12.10;99.90
11035;DHT22;5571;48.110;-1.706;2023-03-29T02:05:33;12.00;99.90
11035;DHT22;5571;48.110;-1.706;2023-03-29T02:08:00;12.10;99.90
11035;DHT22;5571;48.110;-1.706;2023-03-29T02:10:27;12.00;99.90
11035;DHT22;5571;48.110;-1.706;2023-03-29T02:12:54;12.00;99.90
11035;DHT22;5571;48.110;-1.706;2023-03-29T02:15:20;12.00;99.90
11035;DHT22;5571;48.110;-1.706;2023-03-29T02:17:47;12.10;99.90
11035;DHT22;5571;48.110;-1.706;2023-03-29T02:20:38;12.00;99.90
11035;DHT22;5571;48.110;-1.706;2023-03-29T02:25:40;12.10;99.90
11035;DHT22;5571;48.110;-1.706;2023-03-29T02:28:06;12.10;99.90
11035;DHT22;5571;48.110;-1.706;2023-03-29T02:34:01;12.10;99.90
11035;DHT22;5571;48.110;-1.706;2023-03-29T02:38:42;12.10;99.90
11035;DHT22;5571;48.110;-1.706;2023-03-29T02:41:08;12.10;99.90
11035;DHT22;5571;48.110;-1.706;2023-03-29T02:43:35;12.10;99.90
11035;DHT22;5571;48.110;-1.706;2023-03-29T02:46:04;12.10;99.90
11035;DHT22;5571;48.110;-1.706;2023-03-29T02:48:33;12.10;99.90
11035;DHT22;5571;48.110;-1.706;2023-03-29T02:51:03;12.10;99.90
11035;DHT22;5571;48.110;-1.706;2023-03-29T02:53:45;12.10;99.90
11035;DHT22;5571;48.110;-1.706;2023-03-29T02:56:12;12.10;99.90
11035;DHT22;5571;48.110;-1.706;2023-03-29T02:58:38;12.10;99.90
11035;DHT22;5571;48.110;-1.706;2023-03-29T03:01:04;12.00;99.90
11035;DHT22;5571;48.110;-1.706;2023-03-29T03:03:31;12.00;99.90
11035;DHT22;5571;48.110;-1.706;2023-03-29T03:05:57;12.10;99.90
11035;DHT22;5571;48.110;-1.706;2023-03-29T03:08:22;12.10;99.90
11035;DHT22;5571;48.110;-1.706;2023-03-29T03:10:48;12.10;99.90
11035;DHT22;5571;48.110;-1.706;2023-03-29T03:13:14;12.10;99.90
11035;DHT22;5571;48.110;-1.706;2023-03-29T03:15:40;12.10;99.90
11035;DHT22;5571;48.110;-1.706;2023-03-29T03:18:08;12.10;99.90
11035;DHT22;5571;48.110;-1.706;2023-03-29T03:20:34;12.20;99.90
11035;DHT22;5571;48.110;-1.706;2023-03-29T03:23:00;12.10;99.90
11035;DHT22;5571;48.110;-1.706;2023-03-29T03:25:27;12.20;99.90
11035;DHT22;5571;48.110;-1.706;2023-03-29T03:27:54;12.20;99.90
11035;DHT22;5571;48.110;-1.706;2023-03-29T03:30:20;12.20;99.90
11035;DHT22;5571;48.110;-1.706;2023-03-29T03:32:46;12.20;99.90
11035;DHT22;5571;48.110;-1.706;2023-03-29T03:35:12;12.20;99.90
11035;DHT22;5571;48.110;-1.706;2023-03-29T03:37:38;12.20;99.90
11035;DHT22;5571;48.110;-1.706;2023-03-29T03:40:05;12.20;99.90
11035;DHT22;5571;48.110;-1.706;2023-03-29T03:42:31;12.20;99.90
11035;DHT22;5571;48.110;-1.706;2023-03-29T03:44:57;12.20;99.90
11035;DHT22;5571;48.110;-1.706;2023-03-29T03:47:23;12.20;99.90
11035;DHT22;5571;48.110;-1.706;2023-03-29T03:49:49;12.20;99.90
11035;DHT22;5571;48.110;-1.706;2023-03-29T03:52:16;12.20;99.90
11035;DHT22;5571;48.110;-1.706;2023-03-29T03:54:42;12.20;99.90
11035;DHT22;5571;48.110;-1.706;2023-03-29T03:57:11;12.20;99.90
11035;DHT22;5571;48.110;-1.706;2023-03-29T03:59:36;12.20;99.90
11035;DHT22;5571;48.110;-1.706;2023-03-29T04:02:03;12.20;99.90
11035;DHT22;5571;48.110;-1.706;2023-03-29T04:04:29;12.20;99.90
11035;DHT22;5571;48.110;-1.706;2023-03-29T04:06:55;12.20;99.90
11035;DHT22;5571;48.110;-1.706;2023-03-29T04:09:28;12.20;99.90
11035;DHT22;5571;48.110;-1.706;2023-03-29T04:11:54;12.20;99.90
11035;DHT22;5571;48.110;-1.706;2023-03-29T04:14:20;12.20;99.90
11035;DHT22;5571;48.110;-1.706;2023-03-29T04:16:46;12.20;99.90
11035;DHT22;5571;48.110;-1.706;2023-03-29T04:19:11;12.20;99.90
11035;DHT22;5571;48.110;-1.706;2023-03-29T04:21:38;12.20;99.90
11035;DHT22;5571;48.110;-1.706;2023-03-29T04:24:04;12.10;99.90
11035;DHT22;5571;48.110;-1.706;2023-03-29T04:26:29;12.20;99.90
11035;DHT22;5571;48.110;-1.706;2023-03-29T04:28:55;12.20;99.90
11035;DHT22;5571;48.110;-1.706;2023-03-29T04:31:21;12.20;99.90
11035;DHT22;5571;48.110;-1.706;2023-03-29T04:33:47;12.10;99.90
11035;DHT22;5571;48.110;-1.706;2023-03-29T04:36:13;12.20;99.90
11035;DHT22;5571;48.110;-1.706;2023-03-29T04:38:40;12.20;99.90
11035;DHT22;5571;48.110;-1.706;2023-03-29T04:41:07;12.20;99.90
11035;DHT22;5571;48.110;-1.706;2023-03-29T04:43:34;12.20;99.90
11035;DHT22;5571;48.110;-1.706;2023-03-29T04:46:00;12.30;99.90
11035;DHT22;5571;48.110;-1.706;2023-03-29T04:48:26;12.20;99.90
11035;DHT22;5571;48.110;-1.706;2023-03-29T04:50:54;12.30;99.90
11035;DHT22;5571;48.110;-1.706;2023-03-29T04:53:20;12.20;99.90
11035;DHT22;5571;48.110;-1.706;2023-03-29T04:55:46;12.20;99.90
11035;DHT22;5571;48.110;-1.706;2023-03-29T04:58:12;12.20;99.90
11035;DHT22;5571;48.110;-1.706;2023-03-29T05:00:37;12.20;99.90
11035;DHT22;5571;48.110;-1.706;2023-03-29T05:03:03;12.20;99.90
11035;DHT22;5571;48.110;-1.706;2023-03-29T05:05:29;12.20;99.90
11035;DHT22;5571;48.110;-1.706;2023-03-29T05:07:55;12.20;99.90
11035;DHT22;5571;48.110;-1.706;2023-03-29T05:10:21;12.20;99.90
11035;DHT22;5571;48.110;-1.706;2023-03-29T05:12:48;12.20;99.90
11035;DHT22;5571;48.110;-1.706;2023-03-29T05:15:19;12.30;99.90
11035;DHT22;5571;48.110;-1.706;2023-03-29T05:17:45;12.20;99.90
11035;DHT22;5571;48.110;-1.706;2023-03-29T05:20:10;12.30;99.90
11035;DHT22;5571;48.110;-1.706;2023-03-29T05:22:37;12.30;99.90
11035;DHT22;5571;48.110;-1.706;2023-03-29T05:25:04;12.30;99.90
11035;DHT22;5571;48.110;-1.706;2023-03-29T05:27:30;12.20;99.90
11035;DHT22;5571;48.110;-1.706;2023-03-29T05:29:55;12.20;99.90
11035;DHT22;5571;48.110;-1.706;2023-03-29T05:32:21;12.10;99.90
11035;DHT22;5571;48.110;-1.706;2023-03-29T05:34:47;12.20;99.90
11035;DHT22;5571;48.110;-1.706;2023-03-29T05:37:12;12.00;99.90
11035;DHT22;5571;48.110;-1.706;2023-03-29T05:39:38;12.00;99.90
11035;DHT22;5571;48.110;-1.706;2023-03-29T05:42:04;12.00;99.90
11035;DHT22;5571;48.110;-1.706;2023-03-29T05:44:30;11.90;99.90
11035;DHT22;5571;48.110;-1.706;2023-03-29T05:46:56;11.90;99.90
11035;DHT22;5571;48.110;-1.706;2023-03-29T05:49:22;11.80;99.90
11035;DHT22;5571;48.110;-1.706;2023-03-29T05:51:48;11.70;99.90
11035;DHT22;5571;48.110;-1.706;2023-03-29T05:54:13;11.70;99.90
11035;DHT22;5571;48.110;-1.706;2023-03-29T05:56:39;11.70;99.90
11035;DHT22;5571;48.110;-1.706;2023-03-29T05:59:05;11.70;99.90
11035;DHT22;5571;48.110;-1.706;2023-03-29T06:01:32;11.60;99.90
11035;DHT22;5571;48.110;-1.706;2023-03-29T06:03:58;11.60;99.90
11035;DHT22;5571;48.110;-1.706;2023-03-29T06:06:25;11.50;99.90
11035;DHT22;5571;48.110;-1.706;2023-03-29T06:08:50;11.40;99.90
11035;DHT22;5571;48.110;-1.706;2023-03-29T06:11:16;11.30;99.90
11035;DHT22;5571;48.110;-1.706;2023-03-29T06:13:42;11.30;99.90
11035;DHT22;5571;48.110;-1.706;2023-03-29T06:16:09;11.20;99.90
11035;DHT22;5571;48.110;-1.706;2023-03-29T06:18:35;11.20;99.90
11035;DHT22;5571;48.110;-1.706;2023-03-29T06:21:02;11.20;99.90
11035;DHT22;5571;48.110;-1.706;2023-03-29T06:23:28;11.10;99.90
11035;DHT22;5571;48.110;-1.706;2023-03-29T06:25:55;11.10;99.90
11035;DHT22;5571;48.110;-1.706;2023-03-29T06:28:21;11.20;99.90
11035;DHT22;5571;48.110;-1.706;2023-03-29T06:30:48;11.20;99.90
11035;DHT22;5571;48.110;-1.706;2023-03-29T06:33:14;11.20;99.90
11035;DHT22;5571;48.110;-1.706;2023-03-29T06:35:42;11.10;99.90
11035;DHT22;5571;48.110;-1.706;2023-03-29T06:38:09;11.20;99.90
11035;DHT22;5571;48.110;-1.706;2023-03-29T06:40:34;11.20;99.90
11035;DHT22;5571;48.110;-1.706;2023-03-29T06:43:03;11.10;99.90
11035;DHT22;5571;48.110;-1.706;2023-03-29T06:45:31;11.20;99.90
11035;DHT22;5571;48.110;-1.706;2023-03-29T06:47:57;11.20;99.90
11035;DHT22;5571;48.110;-1.706;2023-03-29T06:50:22;11.30;99.90
11035;DHT22;5571;48.110;-1.706;2023-03-29T06:52:48;11.30;99.90
11035;DHT22;5571;48.110;-1.706;2023-03-29T06:55:15;11.30;99.90
11035;DHT22;5571;48.110;-1.706;2023-03-29T06:57:42;11.40;99.90
11035;DHT22;5571;48.110;-1.706;2023-03-29T07:00:08;11.40;99.90
11035;DHT22;5571;48.110;-1.706;2023-03-29T07:02:46;11.40;99.90
11035;DHT22;5571;48.110;-1.706;2023-03-29T07:05:12;11.40;99.90
11035;DHT22;5571;48.110;-1.706;2023-03-29T07:07:39;11.40;99.90
11035;DHT22;5571;48.110;-1.706;2023-03-29T07:10:40;11.40;99.90
11035;DHT22;5571;48.110;-1.706;2023-03-29T07:13:07;11.40;99.90
11035;DHT22;5571;48.110;-1.706;2023-03-29T07:15:33;11.40;99.90
11035;DHT22;5571;48.110;-1.706;2023-03-29T07:18:00;11.40;99.90
11035;DHT22;5571;48.110;-1.706;2023-03-29T07:20:30;11.40;99.90
11035;DHT22;5571;48.110;-1.706;2023-03-29T07:22:55;11.40;99.90
11035;DHT22;5571;48.110;-1.706;2023-03-29T07:25:22;11.50;99.90
11035;DHT22;5571;48.110;-1.706;2023-03-29T07:27:48;11.40;99.90
11035;DHT22;5571;48.110;-1.706;2023-03-29T07:30:25;11.40;99.90
11035;DHT22;5571;48.110;-1.706;2023-03-29T07:32:53;11.50;99.90
11035;DHT22;5571;48.110;-1.706;2023-03-29T07:35:19;11.60;99.90
11035;DHT22;5571;48.110;-1.706;2023-03-29T07:37:45;11.60;99.90
11035;DHT22;5571;48.110;-1.706;2023-03-29T07:40:14;11.50;99.90
11035;DHT22;5571;48.110;-1.706;2023-03-29T07:42:47;11.60;99.90
11035;DHT22;5571;48.110;-1.706;2023-03-29T07:45:15;11.50;99.90
11035;DHT22;5571;48.110;-1.706;2023-03-29T07:47:47;11.60;99.90
11035;DHT22;5571;48.110;-1.706;2023-03-29T07:50:14;11.70;99.90
11035;DHT22;5571;48.110;-1.706;2023-03-29T07:52:40;11.70;99.90
11035;DHT22;5571;48.110;-1.706;2023-03-29T07:55:08;11.70;99.90
11035;DHT22;5571;48.110;-1.706;2023-03-29T07:57:35;11.70;99.90
11035;DHT22;5571;48.110;-1.706;2023-03-29T08:00:01;11.70;99.90
11035;DHT22;5571;48.110;-1.706;2023-03-29T08:02:40;11.70;99.90
11035;DHT22;5571;48.110;-1.706;2023-03-29T08:05:06;11.80;99.90
11035;DHT22;5571;48.110;-1.706;2023-03-29T08:07:31;11.90;99.90
11035;DHT22;5571;48.110;-1.706;2023-03-29T08:09:57;11.80;99.90
11035;DHT22;5571;48.110;-1.706;2023-03-29T08:12:23;11.90;99.90
11035;DHT22;5571;48.110;-1.706;2023-03-29T08:14:48;11.90;99.90
11035;DHT22;5571;48.110;-1.706;2023-03-29T08:17:14;12.00;99.90
11035;DHT22;5571;48.110;-1.706;2023-03-29T08:19:40;12.00;99.90
11035;DHT22;5571;48.110;-1.706;2023-03-29T08:22:06;12.00;99.90
11035;DHT22;5571;48.110;-1.706;2023-03-29T08:24:31;12.00;99.90
11035;DHT22;5571;48.110;-1.706;2023-03-29T08:26:57;12.00;99.90
11035;DHT22;5571;48.110;-1.706;2023-03-29T08:29:23;12.10;99.90
11035;DHT22;5571;48.110;-1.706;2023-03-29T08:31:48;12.20;99.90
11035;DHT22;5571;48.110;-1.706;2023-03-29T08:34:14;12.20;99.90
11035;DHT22;5571;48.110;-1.706;2023-03-29T08:36:40;12.30;99.90
11035;DHT22;5571;48.110;-1.706;2023-03-29T08:39:06;12.30;99.90
11035;DHT22;5571;48.110;-1.706;2023-03-29T08:49:57;12.60;99.90
11035;DHT22;5571;48.110;-1.706;2023-03-29T08:54:58;12.60;99.90
11035;DHT22;5571;48.110;-1.706;2023-03-29T08:57:29;12.70;99.90
11035;DHT22;5571;48.110;-1.706;2023-03-29T08:59:58;12.70;99.90
11035;DHT22;5571;48.110;-1.706;2023-03-29T09:02:29;12.70;99.90
11035;DHT22;5571;48.110;-1.706;2023-03-29T09:04:59;12.70;99.90
11035;DHT22;5571;48.110;-1.706;2023-03-29T09:07:26;12.70;99.90
11035;DHT22;5571;48.110;-1.706;2023-03-29T09:09:52;12.80;99.90
11035;DHT22;5571;48.110;-1.706;2023-03-29T09:12:34;12.90;99.90
11035;DHT22;5571;48.110;-1.706;2023-03-29T09:15:14;12.90;99.90
11035;DHT22;5571;48.110;-1.706;2023-03-29T09:26:30;13.20;99.90
11035;DHT22;5571;48.110;-1.706;2023-03-29T09:31:43;13.40;99.90
11035;DHT22;5571;48.110;-1.706;2023-03-29T09:34:22;13.50;99.90
11035;DHT22;5571;48.110;-1.706;2023-03-29T09:37:05;13.50;99.90
11035;DHT22;5571;48.110;-1.706;2023-03-29T09:39:33;13.50;99.90
11035;DHT22;5571;48.110;-1.706;2023-03-29T09:42:02;13.50;99.90
11035;DHT22;5571;48.110;-1.706;2023-03-29T09:44:53;13.60;99.90
11035;DHT22;5571;48.110;-1.706;2023-03-29T09:47:27;13.60;99.90
11035;DHT22;5571;48.110;-1.706;2023-03-29T09:52:38;13.80;99.90
11035;DHT22;5571;48.110;-1.706;2023-03-29T09:55:04;13.80;99.90
11035;DHT22;5571;48.110;-1.706;2023-03-29T09:57:31;13.80;99.90
11035;DHT22;5571;48.110;-1.706;2023-03-29T09:59:56;13.80;99.90
11035;DHT22;5571;48.110;-1.706;2023-03-29T10:02:23;13.90;99.90
11035;DHT22;5571;48.110;-1.706;2023-03-29T10:04:52;13.90;99.90
11035;DHT22;5571;48.110;-1.706;2023-03-29T10:07:40;13.90;99.90
11035;DHT22;5571;48.110;-1.706;2023-03-29T10:10:22;13.90;99.90
11035;DHT22;5571;48.110;-1.706;2023-03-29T10:12:49;14.00;99.90
11035;DHT22;5571;48.110;-1.706;2023-03-29T10:15:16;14.00;99.90
11035;DHT22;5571;48.110;-1.706;2023-03-29T10:17:42;14.00;99.90
11035;DHT22;5571;48.110;-1.706;2023-03-29T10:20:14;14.20;99.90
11035;DHT22;5571;48.110;-1.706;2023-03-29T10:22:46;14.30;99.90
11035;DHT22;5571;48.110;-1.706;2023-03-29T10:25:14;14.40;99.90
11035;DHT22;5571;48.110;-1.706;2023-03-29T10:27:43;14.40;99.90
11035;DHT22;5571;48.110;-1.706;2023-03-29T10:30:17;14.50;99.90
11035;DHT22;5571;48.110;-1.706;2023-03-29T10:32:44;14.50;99.90
11035;DHT22;5571;48.110;-1.706;2023-03-29T10:37:42;14.60;99.90
11035;DHT22;5571;48.110;-1.706;2023-03-29T10:40:25;14.70;99.90
11035;DHT22;5571;48.110;-1.706;2023-03-29T10:42:51;14.80;99.90
11035;DHT22;5571;48.110;-1.706;2023-03-29T10:45:30;14.90;99.90
11035;DHT22;5571;48.110;-1.706;2023-03-29T10:47:58;15.00;99.90
11035;DHT22;5571;48.110;-1.706;2023-03-29T10:50:29;15.00;99.90
11035;DHT22;5571;48.110;-1.706;2023-03-29T10:52:57;15.20;99.90
11035;DHT22;5571;48.110;-1.706;2023-03-29T10:55:29;15.30;99.90
11035;DHT22;5571;48.110;-1.706;2023-03-29T11:00:56;15.40;99.90
11035;DHT22;5571;48.110;-1.706;2023-03-29T11:14:37;15.80;99.90
11035;DHT22;5571;48.110;-1.706;2023-03-29T11:17:18;16.00;99.90
11035;DHT22;5571;48.110;-1.706;2023-03-29T11:22:43;16.20;99.90
11035;DHT22;5571;48.110;-1.706;2023-03-29T11:25:49;16.20;99.90
11035;DHT22;5571;48.110;-1.706;2023-03-29T11:31:22;16.40;99.90
11035;DHT22;5571;48.110;-1.706;2023-03-29T11:42:16;16.90;99.90
11035;DHT22;5571;48.110;-1.706;2023-03-29T11:44:45;16.90;99.90
11035;DHT22;5571;48.110;-1.706;2023-03-29T11:47:24;17.10;99.90
11035;DHT22;5571;48.110;-1.706;2023-03-29T11:50:03;17.20;99.90
11035;DHT22;5571;48.110;-1.706;2023-03-29T11:52:41;17.40;99.90
11035;DHT22;5571;48.110;-1.706;2023-03-29T11:55:32;17.70;99.90
11035;DHT22;5571;48.110;-1.706;2023-03-29T11:58:19;17.80;99.90
11035;DHT22;5571;48.110;-1.706;2023-03-29T12:04:20;17.70;99.90
11035;DHT22;5571;48.110;-1.706;2023-03-29T12:12:04;18.00;99.90
11035;DHT22;5571;48.110;-1.706;2023-03-29T12:14:43;18.10;99.90
11035;DHT22;5571;48.110;-1.706;2023-03-29T12:17:18;18.20;99.90
11035;DHT22;5571;48.110;-1.706;2023-03-29T12:20:17;18.30;99.90
11035;DHT22;5571;48.110;-1.706;2023-03-29T12:22:45;18.50;99.90
11035;DHT22;5571;48.110;-1.706;2023-03-29T12:25:17;18.60;99.90
11035;DHT22;5571;48.110;-1.706;2023-03-29T12:33:17;18.90;99.90
11035;DHT22;5571;48.110;-1.706;2023-03-29T12:38:31;19.20;99.90
11035;DHT22;5571;48.110;-1.706;2023-03-29T12:40:59;19.20;99.90
11035;DHT22;5571;48.110;-1.706;2023-03-29T12:43:32;19.10;99.90
11035;DHT22;5571;48.110;-1.706;2023-03-29T12:48:36;19.20;99.90
11035;DHT22;5571;48.110;-1.706;2023-03-29T12:51:07;19.20;99.90
11035;DHT22;5571;48.110;-1.706;2023-03-29T12:53:33;19.20;99.90
11035;DHT22;5571;48.110;-1.706;2023-03-29T12:58:54;19.30;99.90
11035;DHT22;5571;48.110;-1.706;2023-03-29T13:01:32;19.40;99.90
11035;DHT22;5571;48.110;-1.706;2023-03-29T13:06:54;19.60;99.60
11035;DHT22;5571;48.110;-1.706;2023-03-29T13:09:28;19.70;98.80
11035;DHT22;5571;48.110;-1.706;2023-03-29T13:14:30;19.70;96.90
11035;DHT22;5571;48.110;-1.706;2023-03-29T13:17:05;19.90;97.20
11035;DHT22;5571;48.110;-1.706;2023-03-29T13:19:46;19.90;96.50
11035;DHT22;5571;48.110;-1.706;2023-03-29T13:36:00;20.20;92.60
11035;DHT22;5571;48.110;-1.706;2023-03-29T13:38:28;19.90;92.70
11035;DHT22;5571;48.110;-1.706;2023-03-29T13:41:02;19.90;93.00
11035;DHT22;5571;48.110;-1.706;2023-03-29T13:46:38;20.00;93.20
11035;DHT22;5571;48.110;-1.706;2023-03-29T13:49:14;20.00;93.70
11035;DHT22;5571;48.110;-1.706;2023-03-29T13:51:58;20.00;93.60
11035;DHT22;5571;48.110;-1.706;2023-03-29T13:57:00;20.20;94.40
11035;DHT22;5571;48.110;-1.706;2023-03-29T13:59:41;20.10;94.40
11035;DHT22;5571;48.110;-1.706;2023-03-29T14:04:58;20.10;94.70
11035;DHT22;5571;48.110;-1.706;2023-03-29T14:07:27;20.10;94.90
11035;DHT22;5571;48.110;-1.706;2023-03-29T14:09:54;20.10;94.60
11035;DHT22;5571;48.110;-1.706;2023-03-29T14:12:22;20.00;94.80
11035;DHT22;5571;48.110;-1.706;2023-03-29T14:14:48;19.90;94.80
11035;DHT22;5571;48.110;-1.706;2023-03-29T14:17:20;20.00;94.80
11035;DHT22;5571;48.110;-1.706;2023-03-29T14:19:47;20.10;95.00
11035;DHT22;5571;48.110;-1.706;2023-03-29T14:22:16;20.10;94.90
11035;DHT22;5571;48.110;-1.706;2023-03-29T14:24:51;20.00;95.00
11035;DHT22;5571;48.110;-1.706;2023-03-29T14:27:17;20.10;95.20
11035;DHT22;5571;48.110;-1.706;2023-03-29T14:29:48;20.00;94.80
11035;DHT22;5571;48.110;-1.706;2023-03-29T14:32:28;20.00;95.30
11035;DHT22;5571;48.110;-1.706;2023-03-29T14:34:54;20.20;95.20
11035;DHT22;5571;48.110;-1.706;2023-03-29T14:37:22;20.40;95.40
11035;DHT22;5571;48.110;-1.706;2023-03-29T14:39:49;20.40;95.00
11035;DHT22;5571;48.110;-1.706;2023-03-29T14:42:20;20.40;95.30
11035;DHT22;5571;48.110;-1.706;2023-03-29T14:44:49;20.40;94.30
11035;DHT22;5571;48.110;-1.706;2023-03-29T14:47:26;20.40;94.80
11035;DHT22;5571;48.110;-1.706;2023-03-29T14:49:53;20.40;95.00
11035;DHT22;5571;48.110;-1.706;2023-03-29T14:52:22;20.40;95.10
11035;DHT22;5571;48.110;-1.706;2023-03-29T14:54:51;20.50;95.10
11035;DHT22;5571;48.110;-1.706;2023-03-29T14:57:17;20.60;95.50
11035;DHT22;5571;48.110;-1.706;2023-03-29T14:59:51;20.60;95.00
11035;DHT22;5571;48.110;-1.706;2023-03-29T15:02:36;20.40;95.30
11035;DHT22;5571;48.110;-1.706;2023-03-29T15:05:04;20.20;95.70
11035;DHT22;5571;48.110;-1.706;2023-03-29T15:07:33;20.10;95.60
11035;DHT22;5571;48.110;-1.706;2023-03-29T15:10:00;20.10;95.80
11035;DHT22;5571;48.110;-1.706;2023-03-29T15:12:30;20.00;95.90
11035;DHT22;5571;48.110;-1.706;2023-03-29T15:14:57;19.80;96.00
11035;DHT22;5571;48.110;-1.706;2023-03-29T15:19:57;19.70;96.90
11035;DHT22;5571;48.110;-1.706;2023-03-29T15:22:31;19.70;96.90
11035;DHT22;5571;48.110;-1.706;2023-03-29T15:24:57;19.80;97.20
11035;DHT22;5571;48.110;-1.706;2023-03-29T15:27:22;19.80;97.60
11035;DHT22;5571;48.110;-1.706;2023-03-29T15:29:48;19.70;97.60
11035;DHT22;5571;48.110;-1.706;2023-03-29T15:32:30;19.60;97.50
11035;DHT22;5571;48.110;-1.706;2023-03-29T15:35:03;19.50;97.70
11035;DHT22;5571;48.110;-1.706;2023-03-29T15:37:30;19.50;97.80
11035;DHT22;5571;48.110;-1.706;2023-03-29T15:39:56;19.40;97.80
11035;DHT22;5571;48.110;-1.706;2023-03-29T15:42:22;19.40;98.20
11035;DHT22;5571;48.110;-1.706;2023-03-29T15:44:53;19.40;97.80
11035;DHT22;5571;48.110;-1.706;2023-03-29T15:47:19;19.50;98.10
11035;DHT22;5571;48.110;-1.706;2023-03-29T15:49:46;19.50;98.80
11035;DHT22;5571;48.110;-1.706;2023-03-29T15:52:11;19.50;98.80
11035;DHT22;5571;48.110;-1.706;2023-03-29T15:54:37;19.50;99.00
11035;DHT22;5571;48.110;-1.706;2023-03-29T15:57:05;19.40;99.30
11035;DHT22;5571;48.110;-1.706;2023-03-29T15:59:32;19.20;99.60
11035;DHT22;5571;48.110;-1.706;2023-03-29T16:01:58;18.90;99.90
11035;DHT22;5571;48.110;-1.706;2023-03-29T16:04:24;18.90;99.80
11035;DHT22;5571;48.110;-1.706;2023-03-29T16:06:52;18.70;99.80
11035;DHT22;5571;48.110;-1.706;2023-03-29T16:09:19;18.60;99.90
11035;DHT22;5571;48.110;-1.706;2023-03-29T16:11:46;18.60;99.90
11035;DHT22;5571;48.110;-1.706;2023-03-29T16:14:19;18.50;99.90
11035;DHT22;5571;48.110;-1.706;2023-03-29T16:16:45;18.50;99.90
11035;DHT22;5571;48.110;-1.706;2023-03-29T16:19:11;18.50;99.90
11035;DHT22;5571;48.110;-1.706;2023-03-29T16:21:36;18.50;99.90
11035;DHT22;5571;48.110;-1.706;2023-03-29T16:24:03;18.50;99.90
11035;DHT22;5571;48.110;-1.706;2023-03-29T16:26:29;18.50;99.90
11035;DHT22;5571;48.110;-1.706;2023-03-29T16:28:56;18.50;99.90
11035;DHT22;5571;48.110;-1.706;2023-03-29T16:31:21;18.50;99.90
11035;DHT22;5571;48.110;-1.706;2023-03-29T16:33:50;18.40;99.90
11035;DHT22;5571;48.110;-1.706;2023-03-29T16:36:15;18.30;99.90
11035;DHT22;5571;48.110;-1.706;2023-03-29T16:38:41;18.30;99.90
11035;DHT22;5571;48.110;-1.706;2023-03-29T16:41:09;18.30;99.90
11035;DHT22;5571;48.110;-1.706;2023-03-29T16:43:36;18.20;99.90
11035;DHT22;5571;48.110;-1.706;2023-03-29T16:46:03;18.20;99.90
11035;DHT22;5571;48.110;-1.706;2023-03-29T16:48:30;18.10;99.90
11035;DHT22;5571;48.110;-1.706;2023-03-29T16:50:56;18.00;99.90
11035;DHT22;5571;48.110;-1.706;2023-03-29T16:53:21;17.90;99.90
11035;DHT22;5571;48.110;-1.706;2023-03-29T16:55:48;17.80;99.90
11035;DHT22;5571;48.110;-1.706;2023-03-29T16:58:13;17.70;99.90
11035;DHT22;5571;48.110;-1.706;2023-03-29T17:00:39;17.70;99.90
11035;DHT22;5571;48.110;-1.706;2023-03-29T17:03:05;17.60;99.90
11035;DHT22;5571;48.110;-1.706;2023-03-29T17:05:32;17.60;99.90
11035;DHT22;5571;48.110;-1.706;2023-03-29T17:08:04;17.60;99.90
11035;DHT22;5571;48.110;-1.706;2023-03-29T17:10:30;17.50;99.90
11035;DHT22;5571;48.110;-1.706;2023-03-29T17:12:56;17.60;99.90
11035;DHT22;5571;48.110;-1.706;2023-03-29T17:15:22;17.60;99.90
11035;DHT22;5571;48.110;-1.706;2023-03-29T17:17:48;17.60;99.90
11035;DHT22;5571;48.110;-1.706;2023-03-29T17:20:13;17.60;99.90
11035;DHT22;5571;48.110;-1.706;2023-03-29T17:22:39;17.60;99.90
11035;DHT22;5571;48.110;-1.706;2023-03-29T17:25:06;17.60;99.90
11035;DHT22;5571;48.110;-1.706;2023-03-29T17:27:33;17.50;99.90
11035;DHT22;5571;48.110;-1.706;2023-03-29T17:29:59;17.40;99.90
11035;DHT22;5571;48.110;-1.706;2023-03-29T17:32:25;17.20;99.90
11035;DHT22;5571;48.110;-1.706;2023-03-29T17:34:51;17.10;99.90
11035;DHT22;5571;48.110;-1.706;2023-03-29T17:37:18;16.90;99.90
11035;DHT22;5571;48.110;-1.706;2023-03-29T17:39:45;16.80;99.90
11035;DHT22;5571;48.110;-1.706;2023-03-29T17:42:11;16.80;99.90
11035;DHT22;5571;48.110;-1.706;2023-03-29T17:44:37;16.70;99.90
11035;DHT22;5571;48.110;-1.706;2023-03-29T17:47:03;16.60;99.90
11035;DHT22;5571;48.110;-1.706;2023-03-29T17:49:28;16.50;99.90
11035;DHT22;5571;48.110;-1.706;2023-03-29T17:51:54;16.50;99.90
11035;DHT22;5571;48.110;-1.706;2023-03-29T17:54:20;16.50;99.90
11035;DHT22;5571;48.110;-1.706;2023-03-29T17:56:45;16.40;99.90